MMTM/TAM METAR and TAF weather

Enter ICAO airport designator
Station Type Date Time Source
MMTM METAR 2019/10/18 09:56 UTC NOAA

MMTM 180956Z E30004KT 5SM BKN100 24/23 A2981 RMK 8/070 HZ RTS


Station Type Date Time Source
MMTM Decoded METAR 2019/10/18 09:56 UTC NOAA

Tampico / Gen Fj Mina, Mexico (MMTM) 22-17N 097-52W
Oct 18, 2019 - 05:56 AM EDT / 2019.10.18 0956 UTC
Visibility: 5 mile(s):0
Sky conditions: mostly cloudy
Temperature: 75 F (24 C)
Dew Point: 73 F (23 C)
Relative Humidity: 94%
Pressure (altimeter): 29.81 in. Hg (1009 hPa)
ob: MMTM 180956Z E30004KT 5SM BKN100 24/23 A2981 RMK 8/070 HZ RTS
cycle: 10

Station Type Date Time Source
MMTM TAF 2019/10/18 06:54 UTC NOAA

TAF MMTM 180552Z 1806/1906 02008KT 5SM HZ SCT015 BKN070
TEMPO 1810/1814 3SM BR BKN015
FM181600 03012KT P6SM SCT015 BKN100
FM190200 13008KT P6SM SCT020 BKN250

Example: see airport list